Time;durP1;ratioP1;P1;durP2;ratioP2;P2;SDS_P1;SDS_P2;PMS_P1;PMS_P2;Temp;Humidity;BMP_temperature;BMP_pressure;BME280_temperature;BME280_humidity;BME280_pressure;Samples;Min_cycle;Max_cycle;Signal;HPM_P1;HPM_P2
2023/08/05 00:00:48;;;;;;;;;;;;;;;27.42;44.10;94094.72;5185717;22;19930;-78
2023/08/05 00:02:49;;;;;;;;;;;;;;;27.41;44.14;94093.13;5160849;22;19999;-80
2023/08/05 00:04:51;;;;;;;;;;;;;;;27.40;43.89;94085.31;5159926;23;19915;-79
2023/08/05 00:06:53;;;;;;;;;;;;;;;27.40;43.80;94088.00;5160081;23;19941;-79
2023/08/05 00:08:54;;;;;;;;;;;;;;;27.40;43.97;94080.72;5185069;22;20329;-80
2023/08/05 00:10:56;;;;;;;;;;;;;;;27.39;43.93;94081.03;5187129;22;20020;-79
2023/08/05 00:12:57;;;;;;;;;;;;;;;27.33;44.27;94082.94;5186974;22;19919;-78
2023/08/05 00:15:00;;;;;;;;;;;;;;;27.28;44.08;94078.41;5187168;22;20314;-80
2023/08/05 00:17:02;;;;;;;;;;;;;;;27.21;44.44;94064.44;5158349;23;20170;-80
2023/08/05 00:19:04;;;;;;;;;;;;;;;27.23;44.42;94070.34;5158466;22;19963;-78
2023/08/05 00:21:05;;;;;;;;;;;;;;;27.24;44.31;94066.59;5187785;22;19950;-79
2023/08/05 00:23:07;;;;;;;;;;;;;;;27.26;44.09;94067.13;5186979;22;19919;-80
2023/08/05 00:25:09;;;;;;;;;;;;;;;27.19;44.69;94063.91;5161574;23;19943;-80
2023/08/05 00:27:10;;;;;;;;;;;;;;;27.07;44.99;94055.38;5163664;23;20066;-77
2023/08/05 00:29:12;;;;;;;;;;;;;;;27.07;45.14;94071.50;5188365;22;19919;-78
2023/08/05 00:31:13;;;;;;;;;;;;;;;27.05;44.74;94062.91;5185626;22;19988;-79
2023/08/05 00:33:15;;;;;;;;;;;;;;;27.02;44.84;94063.47;5162273;23;19947;-77
2023/08/05 00:35:17;;;;;;;;;;;;;;;27.08;44.57;94062.34;5189261;22;19923;-77
2023/08/05 00:37:18;;;;;;;;;;;;;;;27.09;44.61;94063.97;5161544;23;19934;-78
2023/08/05 00:39:20;;;;;;;;;;;;;;;26.98;45.28;94060.53;5163530;23;19923;-79
2023/08/05 00:41:21;;;;;;;;;;;;;;;27.00;44.83;94061.06;5188601;22;19942;-80
2023/08/05 00:43:24;;;;;;;;;;;;;;;26.97;44.96;94058.91;5162008;23;19965;-78
2023/08/05 00:45:26;;;;;;;;;;;;;;;26.95;44.89;94048.47;5188095;22;20006;-80
2023/08/05 00:47:27;;;;;;;;;;;;;;;26.87;44.98;94054.41;5188425;22;19969;-79
2023/08/05 00:49:30;;;;;;;;;;;;;;;26.86;45.05;94044.72;5188060;22;19982;-79
2023/08/05 00:51:32;;;;;;;;;;;;;;;26.79;45.54;94049.63;5189450;22;19923;-80
2023/08/05 00:53:34;;;;;;;;;;;;;;;26.76;45.67;94047.50;5187886;22;19959;-78
2023/08/05 00:55:36;;;;;;;;;;;;;;;26.75;45.59;94043.19;5188669;22;19978;-80
2023/08/05 00:57:37;;;;;;;;;;;;;;;26.74;45.26;94046.97;5161707;22;20011;-79
2023/08/05 00:59:39;;;;;;;;;;;;;;;26.72;45.54;94043.75;5188798;22;19915;-79
2023/08/05 01:01:41;;;;;;;;;;;;;;;26.64;45.70;94050.47;5187376;22;19915;-80
2023/08/05 01:03:42;;;;;;;;;;;;;;;26.55;45.82;94044.84;5188428;22;20197;-78
2023/08/05 01:05:44;;;;;;;;;;;;;;;26.55;46.06;94041.38;5161144;23;19919;-79
2023/08/05 01:07:46;;;;;;;;;;;;;;;26.54;46.04;94040.56;5188965;22;19976;-78
2023/08/05 01:09:49;;;;;;;;;;;;;;;26.49;45.85;94043.25;5188890;22;19918;-79
2023/08/05 01:11:50;;;;;;;;;;;;;;;26.51;46.00;94035.72;5187942;22;20048;-79
2023/08/05 01:13:52;;;;;;;;;;;;;;;26.58;45.81;94042.72;5160379;23;19915;-78
2023/08/05 01:15:54;;;;;;;;;;;;;;;26.53;46.17;94040.84;5187301;22;20015;-81
2023/08/05 01:17:55;;;;;;;;;;;;;;;26.53;45.91;94036.25;5161312;23;19970;-80
2023/08/05 01:19:59;;;;;;;;;;;;;;;26.52;46.13;94040.03;5186311;22;20189;-81
2023/08/05 01:22:07;;;;;;;;;;;;;;;26.53;46.17;94035.47;5161286;23;20220;-80
2023/08/05 01:24:08;;;;;;;;;;;;;;;26.49;46.29;94029.81;5161736;22;19922;-79
2023/08/05 01:26:12;;;;;;;;;;;;;;;26.49;45.97;94029.03;5188814;22;20288;-81
2023/08/05 01:28:14;;;;;;;;;;;;;;;26.28;46.51;94021.03;5188238;22;19950;-80
2023/08/05 01:30:15;;;;;;;;;;;;;;;26.28;46.41;94018.34;5160708;22;20485;-81
2023/08/05 01:32:18;;;;;;;;;;;;;;;26.26;46.40;94023.19;5188363;22;19998;-79
2023/08/05 01:34:19;;;;;;;;;;;;;;;26.32;46.36;94014.03;5163250;22;20567;-79
2023/08/05 01:36:21;;;;;;;;;;;;;;;26.34;46.48;94016.47;5195684;22;19930;-81
2023/08/05 01:38:23;;;;;;;;;;;;;;;26.39;46.42;94021.00;5198022;22;20315;-78
2023/08/05 01:40:28;;;;;;;;;;;;;;;26.38;46.67;94024.78;5161440;23;19960;-80
2023/08/05 01:42:30;;;;;;;;;;;;;;;26.27;46.47;94026.69;5188034;22;20296;-77
2023/08/05 01:44:32;;;;;;;;;;;;;;;26.25;46.70;94018.91;5188452;22;20586;-77
2023/08/05 01:46:34;;;;;;;;;;;;;;;26.27;46.52;94021.31;5188773;22;19919;-78
2023/08/05 01:48:35;;;;;;;;;;;;;;;26.17;46.65;94019.47;5188638;22;19918;-80
2023/08/05 01:50:37;;;;;;;;;;;;;;;26.12;46.80;94022.16;5190159;22;19934;-79
2023/08/05 01:52:39;;;;;;;;;;;;;;;26.02;47.03;94020.31;5190872;22;19927;-78
2023/08/05 01:54:40;;;;;;;;;;;;;;;26.04;47.15;94028.09;5192252;22;20588;-81
2023/08/05 01:56:42;;;;;;;;;;;;;;;26.01;46.98;94026.75;5196082;22;19942;-79
2023/08/05 01:58:44;;;;;;;;;;;;;;;26.01;47.16;94034.00;5193852;22;19925;-80
2023/08/05 02:00:49;;;;;;;;;;;;;;;25.94;47.30;94031.59;5187418;22;19949;-78
2023/08/05 02:02:50;;;;;;;;;;;;;;;25.93;47.28;94022.75;5161928;23;19920;-78
2023/08/05 02:04:52;;;;;;;;;;;;;;;25.96;47.21;94032.13;5188030;22;19919;-79
2023/08/05 02:06:54;;;;;;;;;;;;;;;25.88;47.37;94024.63;5189180;22;19926;-80
2023/08/05 02:08:55;;;;;;;;;;;;;;;25.83;47.47;94021.91;5190568;22;19919;-81
2023/08/05 02:10:57;;;;;;;;;;;;;;;25.86;47.72;94018.72;5164438;23;19927;-79
2023/08/05 02:12:59;;;;;;;;;;;;;;;25.93;47.40;94019.25;5190963;22;19915;-80
2023/08/05 02:15:00;;;;;;;;;;;;;;;26.01;47.10;94015.22;5163441;23;19916;-83
2023/08/05 02:17:04;;;;;;;;;;;;;;;26.00;47.26;94010.94;5190677;22;19922;-80
2023/08/05 02:19:07;;;;;;;;;;;;;;;26.00;47.13;94009.03;5196264;22;20162;-79
2023/08/05 02:21:12;;;;;;;;;;;;;;;26.02;47.20;94016.81;5177054;22;20299;-79
2023/08/05 02:23:14;;;;;;;;;;;;;;;25.94;47.25;94012.81;5202685;22;19937;-77
2023/08/05 02:25:16;;;;;;;;;;;;;;;25.87;47.17;94014.94;5175518;23;20014;-79
2023/08/05 02:27:17;;;;;;;;;;;;;;;25.87;47.52;94017.63;5176528;23;20101;-77
2023/08/05 02:29:19;;;;;;;;;;;;;;;25.89;47.30;94021.66;5203459;22;19919;-79
2023/08/05 02:31:21;;;;;;;;;;;;;;;25.90;47.33;94019.81;5204696;22;20274;-78
2023/08/05 02:33:22;;;;;;;;;;;;;;;25.92;47.36;94015.78;5176836;22;19991;-78
2023/08/05 02:35:24;;;;;;;;;;;;;;;25.93;47.20;94025.41;5177918;23;19970;-79
2023/08/05 02:37:25;;;;;;;;;;;;;;;25.90;47.51;94017.94;5178640;22;19962;-81
2023/08/05 02:39:28;;;;;;;;;;;;;;;25.89;47.56;94020.88;5178653;22;20003;-78
2023/08/05 02:41:30;;;;;;;;;;;;;;;25.89;47.42;94015.50;5201914;22;19954;-81
2023/08/05 02:43:32;;;;;;;;;;;;;;;25.89;47.51;94020.88;5202557;22;19938;-78
2023/08/05 02:45:33;;;;;;;;;;;;;;;25.91;47.24;94019.53;5171998;22;20018;-79
2023/08/05 02:47:35;;;;;;;;;;;;;;;25.87;47.51;94023.78;5173677;23;19982;-76
2023/08/05 02:49:36;;;;;;;;;;;;;;;25.88;47.48;94014.72;5170405;22;20057;-80
2023/08/05 02:51:38;;;;;;;;;;;;;;;25.89;47.43;94018.19;5197371;22;19916;-81
2023/08/05 02:53:40;;;;;;;;;;;;;;;25.88;47.54;94021.94;5194095;22;20184;-77
2023/08/05 02:55:41;;;;;;;;;;;;;;;25.86;47.44;94022.19;5190849;22;19919;-80
2023/08/05 02:57:43;;;;;;;;;;;;;;;25.85;47.84;94025.13;5188796;22;20207;-81
2023/08/05 02:59:45;;;;;;;;;;;;;;;25.83;47.75;94024.59;5188016;22;19980;-79
2023/08/05 03:01:46;;;;;;;;;;;;;;;25.81;47.98;94021.38;5187676;22;19922;-77
2023/08/05 03:03:48;;;;;;;;;;;;;;;25.81;47.89;94010.66;5160295;22;19970;-80
2023/08/05 03:05:50;;;;;;;;;;;;;;;25.84;47.61;94010.94;5160557;23;19920;-79
2023/08/05 03:07:51;;;;;;;;;;;;;;;25.74;47.98;94011.72;5161593;23;19920;-81
2023/08/05 03:09:53;;;;;;;;;;;;;;;25.72;47.94;94013.09;5188278;22;20819;-79
2023/08/05 03:11:55;;;;;;;;;;;;;;;25.72;48.07;94011.19;5187803;22;19915;-78
2023/08/05 03:13:56;;;;;;;;;;;;;;;25.70;47.86;94015.22;5187518;22;19963;-80
2023/08/05 03:15:58;;;;;;;;;;;;;;;25.68;47.92;94023.56;5160285;22;19919;-79
2023/08/05 03:18:00;;;;;;;;;;;;;;;25.72;47.93;94026.50;5160345;23;19966;-79
2023/08/05 03:20:02;;;;;;;;;;;;;;;25.69;47.89;94025.16;5187081;22;20097;-79
2023/08/05 03:22:04;;;;;;;;;;;;;;;25.64;48.08;94029.72;5188101;22;19967;-80
2023/08/05 03:24:06;;;;;;;;;;;;;;;25.65;48.01;94032.13;5187127;22;19994;-79
2023/08/05 03:26:07;;;;;;;;;;;;;;;25.68;47.78;94034.28;5187035;22;19976;-80
2023/08/05 03:28:10;;;;;;;;;;;;;;;25.68;47.99;94026.25;5187428;22;19926;-82
2023/08/05 03:30:12;;;;;;;;;;;;;;;25.68;47.94;94026.25;5186578;22;20238;-79
2023/08/05 03:32:24;;;;;;;;;;;;;;;25.69;48.04;94022.47;4232149;27;20307;-81
2023/08/05 03:34:25;;;;;;;;;;;;;;;25.72;47.99;94024.59;4233748;27;19932;-80
2023/08/05 03:36:27;;;;;;;;;;;;;;;25.73;47.76;94026.22;4240196;27;20027;-83
2023/08/05 03:38:30;;;;;;;;;;;;;;;25.73;47.84;94022.75;4239339;27;20010;-79
2023/08/05 03:40:31;;;;;;;;;;;;;;;25.68;47.99;94028.09;4234934;28;20546;-79
2023/08/05 03:42:33;;;;;;;;;;;;;;;25.67;47.93;94030.00;4232968;28;20047;-81
2023/08/05 03:44:35;;;;;;;;;;;;;;;25.67;48.08;94024.63;4213414;28;20284;-77
2023/08/05 03:46:37;;;;;;;;;;;;;;;25.71;47.86;94033.75;4228838;27;20006;-79
2023/08/05 03:48:39;;;;;;;;;;;;;;;25.70;47.63;94034.81;4224365;27;19931;-79
2023/08/05 03:50:41;;;;;;;;;;;;;;;25.67;48.34;94035.34;4227314;27;19928;-80
2023/08/05 03:52:42;;;;;;;;;;;;;;;25.61;48.30;94031.06;4230039;27;19928;-81
2023/08/05 03:54:44;;;;;;;;;;;;;;;25.61;48.37;94022.22;4235502;27;20010;-82
2023/08/05 03:56:46;;;;;;;;;;;;;;;25.61;48.24;94017.66;4237297;28;20039;-77
2023/08/05 03:58:48;;;;;;;;;;;;;;;25.66;48.24;94022.22;4234239;27;19923;-78
2023/08/05 04:00:49;;;;;;;;;;;;;;;25.70;48.12;94016.03;4221207;28;19939;-80
2023/08/05 04:02:51;;;;;;;;;;;;;;;25.73;48.12;94010.13;4239571;27;20457;-79
2023/08/05 04:04:53;;;;;;;;;;;;;;;25.77;47.77;94006.91;4227898;27;20287;-82
2023/08/05 04:06:54;;;;;;;;;;;;;;;25.82;47.74;94009.59;4240445;27;19923;-81
2023/08/05 04:08:56;;;;;;;;;;;;;;;25.89;47.73;94002.09;4233658;27;20363;-80
2023/08/05 04:10:58;;;;;;;;;;;;;;;25.92;47.48;94004.22;4232860;27;19928;-81
2023/08/05 04:13:03;;;;;;;;;;;;;;;25.96;47.22;94010.66;4232825;27;19928;-78
2023/08/05 04:15:07;;;;;;;;;;;;;;;25.92;47.26;94009.59;4238471;27;19927;-79
2023/08/05 04:17:10;;;;;;;;;;;;;;;25.87;47.12;94007.69;4228091;27;19924;-78
2023/08/05 04:19:11;;;;;;;;;;;;;;;25.86;47.15;94010.66;4224871;28;19946;-79
2023/08/05 04:21:13;;;;;;;;;;;;;;;25.91;47.08;94010.69;4233805;27;19924;-78
2023/08/05 04:23:20;;;;;;;;;;;;;;;25.97;46.98;94012.28;4228418;27;19931;-78
2023/08/05 04:25:22;;;;;;;;;;;;;;;26.07;46.61;94012.25;4212096;28;19994;-80
2023/08/05 04:27:24;;;;;;;;;;;;;;;26.19;46.36;94011.16;4207330;28;19934;-80
2023/08/05 04:29:26;;;;;;;;;;;;;;;26.20;46.15;94007.38;4217942;28;19928;-79
2023/08/05 04:31:28;;;;;;;;;;;;;;;26.23;45.97;94001.47;4229215;27;19923;-80
2023/08/05 04:33:32;;;;;;;;;;;;;;;26.26;46.13;94008.97;4239136;27;19928;-80
2023/08/05 04:35:33;;;;;;;;;;;;;;;26.30;45.95;94010.03;4222573;28;19989;-80
2023/08/05 04:37:38;;;;;;;;;;;;;;;26.33;45.98;94018.34;4215586;28;19933;-81
2023/08/05 04:39:39;;;;;;;;;;;;;;;26.26;45.99;94019.72;4223178;28;19932;-78
2023/08/05 04:41:41;;;;;;;;;;;;;;;26.34;45.90;94024.50;4241698;28;20614;-81
2023/08/05 04:43:45;;;;;;;;;;;;;;;26.39;45.68;94021.81;4218758;28;20007;-78
2023/08/05 04:45:50;;;;;;;;;;;;;;;26.47;45.74;94023.91;4218255;28;20023;-81
2023/08/05 04:47:52;;;;;;;;;;;;;;;26.48;45.58;94012.13;4225055;28;19935;-79
2023/08/05 04:49:54;;;;;;;;;;;;;;;26.53;45.59;94020.13;4208138;28;19999;-78
2023/08/05 04:51:55;;;;;;;;;;;;;;;26.55;45.36;94026.03;4197387;28;19934;-81
2023/08/05 04:53:57;;;;;;;;;;;;;;;26.60;45.09;94030.63;4222277;27;19947;-80
2023/08/05 04:55:58;;;;;;;;;;;;;;;26.67;45.34;94030.31;4227628;27;19930;-78
2023/08/05 04:58:00;;;;;;;;;;;;;;;26.74;45.08;94030.84;4212376;28;19950;-82
2023/08/05 05:00:02;;;;;;;;;;;;;;;26.75;45.45;94032.44;4231832;27;19924;-81
2023/08/05 05:02:04;;;;;;;;;;;;;;;26.75;45.23;94027.06;4200061;28;19928;-80
2023/08/05 05:04:05;;;;;;;;;;;;;;;26.70;45.36;94025.22;4199531;28;20411;-77
2023/08/05 05:06:07;;;;;;;;;;;;;;;26.58;45.61;94029.28;4233330;27;19932;-80
2023/08/05 05:08:10;;;;;;;;;;;;;;;26.62;45.42;94033.03;4230613;28;19939;-83
2023/08/05 05:10:17;;;;;;;;;;;;;;;26.60;45.40;94027.94;4208037;28;20037;-84
2023/08/05 05:12:18;;;;;;;;;;;;;;;26.62;45.65;94028.47;4242361;27;20281;-81
2023/08/05 05:14:20;;;;;;;;;;;;;;;26.62;45.60;94030.34;4217167;28;20389;-80
2023/08/05 05:16:22;;;;;;;;;;;;;;;26.58;45.75;94022.03;4210406;28;19974;-79
2023/08/05 05:18:23;;;;;;;;;;;;;;;26.67;45.41;94024.94;4211752;28;19928;-80
2023/08/05 05:20:25;;;;;;;;;;;;;;;26.75;45.51;94022.47;4185617;28;19932;-79
2023/08/05 05:22:28;;;;;;;;;;;;;;;26.75;45.16;94022.47;4229606;28;20071;-81
2023/08/05 05:24:30;;;;;;;;;;;;;;;26.81;45.26;94030.53;4219242;28;19938;-79
2023/08/05 05:26:32;;;;;;;;;;;;;;;26.85;44.94;94021.63;4229980;27;19931;-81
2023/08/05 05:28:33;;;;;;;;;;;;;;;26.84;45.50;94020.00;4218370;28;19950;-80
2023/08/05 05:30:35;;;;;;;;;;;;;;;26.95;45.18;94015.38;4219806;27;20018;-79
2023/08/05 05:32:37;;;;;;;;;;;;;;;27.03;45.04;94024.75;4213429;27;21106;-79
2023/08/05 05:34:38;;;;;;;;;;;;;;;27.09;44.88;94016.38;4224027;28;19935;-79
2023/08/05 05:36:40;;;;;;;;;;;;;;;27.05;44.11;94014.53;4216904;28;19972;-81
2023/08/05 05:38:43;;;;;;;;;;;;;;;26.99;44.64;94027.19;4214899;28;19928;-79
2023/08/05 05:40:45;;;;;;;;;;;;;;;27.10;44.25;94020.69;4227682;28;20006;-80
2023/08/05 05:42:49;;;;;;;;;;;;;;;27.13;44.60;94028.19;4227349;28;20598;-80
2023/08/05 05:44:52;;;;;;;;;;;;;;;27.12;44.41;94026.56;4212434;27;19931;-78
2023/08/05 05:46:54;;;;;;;;;;;;;;;27.24;44.15;94030.84;4214242;27;20262;-82
2023/08/05 05:48:57;;;;;;;;;;;;;;;27.19;44.13;94026.28;4194377;28;20375;-83
2023/08/05 05:50:58;;;;;;;;;;;;;;;27.20;43.86;94022.50;4214042;28;20342;-79
2023/08/05 05:53:00;;;;;;;;;;;;;;;27.24;43.64;94020.88;4220401;28;19932;-81
2023/08/05 05:55:03;;;;;;;;;;;;;;;27.26;43.81;94020.63;4207296;28;19928;-79
2023/08/05 05:57:04;;;;;;;;;;;;;;;27.27;43.63;94014.94;4227490;27;19980;-80
2023/08/05 05:59:06;;;;;;;;;;;;;;;27.25;43.90;94013.63;4232949;27;20015;-80
2023/08/05 06:01:07;;;;;;;;;;;;;;;27.30;43.34;94008.22;4217221;27;19924;-80
2023/08/05 06:03:09;;;;;;;;;;;;;;;27.24;43.38;94012.81;4212252;28;19928;-80
2023/08/05 06:05:12;;;;;;;;;;;;;;;27.25;43.68;94006.34;4204936;28;20022;-81
2023/08/05 06:07:13;;;;;;;;;;;;;;;27.24;43.59;94010.13;4227246;27;19971;-80
2023/08/05 06:09:15;;;;;;;;;;;;;;;27.42;43.39;94010.53;4221130;28;19924;-80
2023/08/05 06:11:17;;;;;;;;;;;;;;;27.55;43.22;94009.88;4209920;28;19967;-80
2023/08/05 06:13:19;;;;;;;;;;;;;;;27.65;43.25;94009.81;4194675;28;19989;-78
2023/08/05 06:15:21;;;;;;;;;;;;;;;27.65;43.45;94014.38;4206810;28;20455;-81
2023/08/05 06:17:22;;;;;;;;;;;;;;;27.54;43.35;94005.59;4211800;28;19931;-79
2023/08/05 06:19:24;;;;;;;;;;;;;;;27.50;43.43;94009.94;4209538;28;19946;-79
2023/08/05 06:21:26;;;;;;;;;;;;;;;27.55;43.87;94004.50;4196837;28;19982;-81
2023/08/05 06:23:27;;;;;;;;;;;;;;;27.61;43.40;94000.69;4193686;28;19924;-80
2023/08/05 06:25:29;;;;;;;;;;;;;;;27.65;43.36;94000.94;4222026;28;20571;-80
2023/08/05 06:27:31;;;;;;;;;;;;;;;27.71;43.09;93986.34;4217899;28;19938;-81
2023/08/05 06:29:32;;;;;;;;;;;;;;;27.75;43.71;93980.13;4222918;28;19935;-80
2023/08/05 06:31:34;;;;;;;;;;;;;;;27.80;42.93;93981.94;4224231;28;20117;-81
2023/08/05 06:33:36;;;;;;;;;;;;;;;27.91;43.46;93977.28;4195371;28;19928;-79
2023/08/05 06:35:37;;;;;;;;;;;;;;;28.02;42.74;93978.78;4226138;28;19935;-82
2023/08/05 06:37:39;;;;;;;;;;;;;;;28.03;42.48;93974.19;4214238;28;19932;-80
2023/08/05 06:39:41;;;;;;;;;;;;;;;28.10;42.54;93970.09;4198595;28;20043;-84
2023/08/05 06:41:42;;;;;;;;;;;;;;;27.97;42.30;93970.78;4213556;28;19955;-81
2023/08/05 06:43:44;;;;;;;;;;;;;;;27.95;42.81;93965.66;4210524;28;20512;-81
2023/08/05 06:45:47;;;;;;;;;;;;;;;28.06;42.62;93957.50;4214424;27;19970;-80
2023/08/05 06:47:49;;;;;;;;;;;;;;;28.18;42.78;93955.22;4225900;27;20034;-79
2023/08/05 06:49:50;;;;;;;;;;;;;;;28.33;42.48;93954.19;4204446;28;19927;-79
2023/08/05 06:51:52;;;;;;;;;;;;;;;28.34;42.20;93956.59;4223869;27;19948;-81
2023/08/05 06:53:57;;;;;;;;;;;;;;;28.38;41.91;93948.75;4220258;28;19924;-82
2023/08/05 06:56:03;;;;;;;;;;;;;;;28.45;42.21;93938.41;4214278;28;19971;-78
2023/08/05 06:58:04;;;;;;;;;;;;;;;28.52;41.73;93933.53;4225378;28;20393;-80
2023/08/05 07:00:07;;;;;;;;;;;;;;;28.59;41.67;93931.25;4220964;28;19938;-80
2023/08/05 07:02:08;;;;;;;;;;;;;;;28.67;41.37;93921.72;4223893;28;19991;-81
2023/08/05 07:04:10;;;;;;;;;;;;;;;28.77;41.15;93916.19;4199808;28;19924;-82
2023/08/05 07:06:12;;;;;;;;;;;;;;;28.84;41.45;93925.78;4193944;28;19930;-80
2023/08/05 07:08:14;;;;;;;;;;;;;;;28.88;41.10;93921.44;4224846;28;19945;-81
2023/08/05 07:10:16;;;;;;;;;;;;;;;28.97;41.02;93925.88;4222875;28;20227;-80
2023/08/05 07:12:17;;;;;;;;;;;;;;;29.04;41.06;93927.38;4218835;28;19932;-81
2023/08/05 07:14:19;;;;;;;;;;;;;;;28.96;40.93;93926.16;4211098;28;19951;-79
2023/08/05 07:16:20;;;;;;;;;;;;;;;28.91;41.46;93932.44;4209603;28;19935;-79
2023/08/05 07:18:22;;;;;;;;;;;;;;;28.77;41.26;93926.97;4221591;28;19928;-80
2023/08/05 07:20:24;;;;;;;;;;;;;;;28.91;41.00;93928.91;4215283;28;20396;-80
2023/08/05 07:22:26;;;;;;;;;;;;;;;28.79;41.44;93924.78;4205690;28;19964;-81
2023/08/05 07:24:27;;;;;;;;;;;;;;;28.63;41.66;93918.03;4213844;28;19923;-80
2023/08/05 07:26:29;;;;;;;;;;;;;;;28.63;41.73;93914.50;4229452;27;19928;-81
2023/08/05 07:28:31;;;;;;;;;;;;;;;28.83;41.73;93911.53;4216880;28;20334;-79
2023/08/05 07:30:32;;;;;;;;;;;;;;;29.05;41.26;93918.22;4219950;28;20391;-80
2023/08/05 07:32:34;;;;;;;;;;;;;;;29.21;41.04;93922.28;4217721;28;19962;-81
2023/08/05 07:34:36;;;;;;;;;;;;;;;29.40;40.57;93916.84;4217675;28;19932;-81
2023/08/05 07:36:41;;;;;;;;;;;;;;;29.45;40.77;93915.94;4207988;28;19930;-80
2023/08/05 07:38:45;;;;;;;;;;;;;;;29.33;40.38;93921.81;4225854;28;19985;-83
2023/08/05 07:40:48;;;;;;;;;;;;;;;29.43;40.42;93918.13;4215394;28;19928;-82
2023/08/05 07:42:50;;;;;;;;;;;;;;;29.52;40.36;93909.06;4214273;28;20325;-81
2023/08/05 07:44:53;;;;;;;;;;;;;;;29.29;40.35;93900.03;4236141;27;20455;-82
2023/08/05 07:46:54;;;;;;;;;;;;;;;29.28;40.84;93901.13;4214764;28;20001;-80
2023/08/05 07:48:58;;;;;;;;;;;;;;;29.17;40.94;93897.81;4218252;28;19927;-81
2023/08/05 07:51:00;;;;;;;;;;;;;;;29.30;40.45;93900.84;4214699;28;19928;-79
2023/08/05 07:53:03;;;;;;;;;;;;;;;29.22;40.79;93899.63;4222044;28;19954;-82
2023/08/05 07:55:05;;;;;;;;;;;;;;;29.13;40.67;93896.78;4224839;28;19932;-80
2023/08/05 07:57:08;;;;;;;;;;;;;;;28.86;40.91;93899.34;4219942;28;19939;-82
2023/08/05 07:59:12;;;;;;;;;;;;;;;28.92;41.00;93903.56;4218582;28;20315;-79
2023/08/05 08:01:21;;;;;;;;;;;;;;;28.69;41.73;93899.88;4221960;28;19924;-80
2023/08/05 08:03:26;;;;;;;;;;;;;;;28.69;41.58;93897.16;4228729;28;20005;-80
2023/08/05 08:05:28;;;;;;;;;;;;;;;28.93;41.26;93897.91;4212767;28;19978;-81
2023/08/05 08:07:30;;;;;;;;;;;;;;;29.10;40.95;93897.38;4193687;28;20106;-81
2023/08/05 08:09:32;;;;;;;;;;;;;;;29.20;40.83;93885.63;4213960;28;19928;-81
2023/08/05 08:11:34;;;;;;;;;;;;;;;29.42;40.38;93884.19;4219343;28;19923;-80
2023/08/05 08:13:36;;;;;;;;;;;;;;;29.18;40.68;93880.50;4213038;28;19967;-80
2023/08/05 08:15:37;;;;;;;;;;;;;;;29.23;40.65;93893.09;4194155;28;19931;-81
2023/08/05 08:17:39;;;;;;;;;;;;;;;29.36;40.50;93883.44;4213307;28;19975;-79
2023/08/05 08:19:42;;;;;;;;;;;;;;;29.21;40.38;93884.50;4224499;28;20347;-83
2023/08/05 08:21:45;;;;;;;;;;;;;;;29.22;40.67;93879.94;4226573;28;20406;-81
2023/08/05 08:23:46;;;;;;;;;;;;;;;29.45;40.24;93878.16;4213921;28;20303;-79
2023/08/05 08:25:48;;;;;;;;;;;;;;;29.60;40.15;93880.63;4222144;28;19942;-83
2023/08/05 08:27:50;;;;;;;;;;;;;;;29.75;39.78;93876.84;4225135;27;19997;-81
2023/08/05 08:29:52;;;;;;;;;;;;;;;29.87;39.32;93869.03;4220809;28;19940;-80
2023/08/05 08:31:55;;;;;;;;;;;;;;;29.97;39.06;93868.84;4201485;28;19927;-79
2023/08/05 08:33:57;;;;;;;;;;;;;;;30.16;39.14;93865.25;4218476;27;20015;-82
2023/08/05 08:35:59;;;;;;;;;;;;;;;30.30;39.10;93870.63;4223630;28;19932;-79
2023/08/05 08:38:00;;;;;;;;;;;;;;;30.27;39.17;93874.72;4217813;27;20019;-80
2023/08/05 08:40:03;;;;;;;;;;;;;;;29.96;39.61;93877.25;4219343;28;20047;-81
2023/08/05 08:42:04;;;;;;;;;;;;;;;29.88;39.64;93875.25;4209081;28;20462;-80
2023/08/05 08:44:06;;;;;;;;;;;;;;;29.94;39.89;93874.03;4228622;28;19939;-81
2023/08/05 08:46:09;;;;;;;;;;;;;;;29.92;39.76;93863.56;4194818;28;19940;-81
2023/08/05 08:48:11;;;;;;;;;;;;;;;29.87;39.51;93852.84;4225867;27;20294;-81
2023/08/05 08:50:12;;;;;;;;;;;;;;;29.77;39.99;93858.44;4216818;28;20456;-80
2023/08/05 08:52:14;;;;;;;;;;;;;;;30.00;39.89;93862.84;4234663;27;19945;-81
2023/08/05 08:54:16;;;;;;;;;;;;;;;30.00;39.97;93853.94;4199233;28;20292;-81
2023/08/05 08:56:18;;;;;;;;;;;;;;;30.11;39.72;93860.72;4226448;28;19924;-79
2023/08/05 08:58:19;;;;;;;;;;;;;;;30.02;40.36;93859.84;4227834;27;19940;-80
2023/08/05 09:00:21;;;;;;;;;;;;;;;30.05;39.65;93855.72;4234603;27;19923;-81
2023/08/05 09:02:23;;;;;;;;;;;;;;;29.84;39.90;93853.47;4225360;28;19932;-80
2023/08/05 09:04:25;;;;;;;;;;;;;;;29.87;40.16;93846.66;4226533;28;19928;-82
2023/08/05 09:06:27;;;;;;;;;;;;;;;29.96;40.03;93850.25;4210355;28;20285;-78
2023/08/05 09:08:31;;;;;;;;;;;;;;;29.99;40.30;93850.44;4228023;28;19996;-79
2023/08/05 09:10:33;;;;;;;;;;;;;;;30.22;39.64;93855.91;4229718;28;19998;-83
2023/08/05 09:12:35;;;;;;;;;;;;;;;30.13;39.56;93855.81;4251920;27;19979;-79
2023/08/05 09:14:37;;;;;;;;;;;;;;;29.96;40.62;93851.03;4221281;28;20003;-79
2023/08/05 09:16:57;;;;;;;;;;;;;;;30.04;40.22;93849.53;4221627;28;19924;-79
2023/08/05 09:19:01;;;;;;;;;;;;;;;30.36;39.73;93845.13;4217158;28;19958;-78
2023/08/05 09:21:03;;;;;;;;;;;;;;;30.53;39.33;93850.66;4240441;27;19974;-77
2023/08/05 09:23:07;;;;;;;;;;;;;;;30.82;39.15;93850.28;4214527;28;19963;-81
2023/08/05 09:25:12;;;;;;;;;;;;;;;31.06;38.73;93854.56;4242320;27;19915;-80
2023/08/05 09:27:14;;;;;;;;;;;;;;;31.30;38.30;93848.84;4236108;27;20371;-82
2023/08/05 09:29:19;;;;;;;;;;;;;;;31.31;38.28;93852.34;4208154;28;19932;-79
2023/08/05 09:31:21;;;;;;;;;;;;;;;31.48;38.04;93854.38;4230281;28;19928;-79
2023/08/05 09:33:29;;;;;;;;;;;;;;;31.23;37.58;93851.19;4242061;28;19931;-80
2023/08/05 09:35:30;;;;;;;;;;;;;;;30.54;38.54;93841.44;4232116;28;19981;-80
2023/08/05 09:37:32;;;;;;;;;;;;;;;30.65;39.31;93841.22;4237399;28;20011;-79
2023/08/05 09:39:42;;;;;;;;;;;;;;;30.94;38.88;93847.03;4239100;28;19924;-80
2023/08/05 09:41:54;;;;;;;;;;;;;;;31.12;37.98;93837.13;4233769;27;19942;-82
2023/08/05 09:43:58;;;;;;;;;;;;;;;31.34;38.41;93832.78;4222468;28;19928;-81
2023/08/05 09:46:04;;;;;;;;;;;;;;;31.51;38.09;93830.19;4227620;27;20019;-79
2023/08/05 09:48:10;;;;;;;;;;;;;;;31.57;37.61;93830.84;4211728;28;19928;-79
2023/08/05 09:50:12;;;;;;;;;;;;;;;31.73;37.66;93833.94;4200581;28;20010;-82
2023/08/05 09:52:17;;;;;;;;;;;;;;;31.68;37.61;93829.47;4219401;28;19983;-82
2023/08/05 09:54:23;;;;;;;;;;;;;;;31.61;37.37;93837.25;4213303;28;20022;-81
2023/08/05 09:56:26;;;;;;;;;;;;;;;31.55;37.87;93827.66;4238147;27;19938;-80
2023/08/05 09:58:30;;;;;;;;;;;;;;;31.24;37.88;93825.75;4196824;28;20019;-82
2023/08/05 10:00:33;;;;;;;;;;;;;;;31.18;38.07;93821.56;4218687;28;19934;-82
2023/08/05 10:02:35;;;;;;;;;;;;;;;31.33;37.85;93821.16;4219104;28;19928;-79
2023/08/05 10:04:37;;;;;;;;;;;;;;;31.37;38.05;93824.84;4212682;27;20098;-80
2023/08/05 10:06:42;;;;;;;;;;;;;;;31.30;37.89;93827.22;4212479;28;20106;-79
2023/08/05 10:08:46;;;;;;;;;;;;;;;31.45;37.84;93822.50;4238230;27;19930;-80
2023/08/05 10:10:48;;;;;;;;;;;;;;;31.69;37.67;93825.66;4210447;28;20010;-80
2023/08/05 10:12:52;;;;;;;;;;;;;;;31.92;37.57;93815.53;4215939;28;20379;-80
2023/08/05 10:14:57;;;;;;;;;;;;;;;31.95;37.18;93819.53;4213179;28;20018;-80
2023/08/05 10:16:59;;;;;;;;;;;;;;;32.00;37.48;93814.78;4230128;27;20459;-83
2023/08/05 10:19:00;;;;;;;;;;;;;;;31.84;37.08;93817.09;4194434;28;19936;-80
2023/08/05 10:21:05;;;;;;;;;;;;;;;31.68;38.00;93820.56;4193545;28;20409;-82
2023/08/05 10:23:10;;;;;;;;;;;;;;;31.67;37.12;93822.47;4223183;27;19952;-82
2023/08/05 10:25:11;;;;;;;;;;;;;;;31.81;37.92;93822.34;4200733;28;19924;-80
2023/08/05 10:27:13;;;;;;;;;;;;;;;31.80;37.40;93818.84;4218771;28;19939;-81
2023/08/05 10:29:24;;;;;;;;;;;;;;;31.73;37.18;93823.94;4222752;27;19938;-79
2023/08/05 10:31:28;;;;;;;;;;;;;;;31.69;37.96;93812.13;4219808;28;20039;-79
2023/08/05 10:33:29;;;;;;;;;;;;;;;31.46;38.11;93813.31;4201916;28;19963;-78
2023/08/05 10:35:42;;;;;;;;;;;;;;;31.12;38.23;93803.88;4203660;28;19975;-81
2023/08/05 10:37:47;;;;;;;;;;;;;;;31.17;38.38;93807.25;4205750;28;19928;-79